createdAt,value
2018-07-19T00:01:23.859Z,9.00
2018-07-19T00:04:06.372Z,9.00
2018-07-19T00:06:48.992Z,8.30
2018-07-19T00:09:31.359Z,8.23
2018-07-19T00:12:14.816Z,7.67
2018-07-19T00:14:57.429Z,8.37
2018-07-19T00:17:40.384Z,8.83
2018-07-19T00:20:22.683Z,10.40
2018-07-19T00:23:05.503Z,11.70
2018-07-19T00:25:48.542Z,9.70
2018-07-19T00:28:31.087Z,11.60
2018-07-19T00:31:14.095Z,7.90
2018-07-19T00:33:56.755Z,9.43
2018-07-19T00:36:39.458Z,11.60
2018-07-19T00:39:22.186Z,9.80
2018-07-19T00:42:05.200Z,10.77
2018-07-19T00:44:47.916Z,9.90
2018-07-19T00:47:30.582Z,10.40
2018-07-19T00:50:13.437Z,10.50
2018-07-19T00:52:56.082Z,8.93
2018-07-19T00:55:38.963Z,9.10
2018-07-19T00:58:21.666Z,8.43
2018-07-19T01:01:04.114Z,9.40
2018-07-19T01:03:46.842Z,8.60
2018-07-19T01:06:29.622Z,7.50
2018-07-19T01:09:13.123Z,7.40
2018-07-19T01:11:56.635Z,6.87
2018-07-19T01:14:39.659Z,6.70
2018-07-19T01:17:22.170Z,7.83
2018-07-19T01:20:04.938Z,8.40
2018-07-19T01:22:48.218Z,8.40
2018-07-19T01:25:31.680Z,7.90
2018-07-19T01:28:14.077Z,8.40
2018-07-19T01:30:56.819Z,7.30
2018-07-19T01:33:39.817Z,7.27
2018-07-19T01:36:22.178Z,7.50
2018-07-19T01:39:06.926Z,7.00
2018-07-19T01:42:28.505Z,7.60
2018-07-19T01:45:12.614Z,6.90
2018-07-19T01:47:55.178Z,6.77
2018-07-19T01:50:38.161Z,6.83
2018-07-19T01:53:20.970Z,6.77
2018-07-19T01:56:03.878Z,7.23
2018-07-19T01:58:46.277Z,7.07
2018-07-19T02:01:29.073Z,7.10
2018-07-19T02:04:12.226Z,7.60
2018-07-19T02:06:56.349Z,8.57
2018-07-19T02:09:39.333Z,7.37
2018-07-19T02:12:21.969Z,8.20
2018-07-19T02:15:04.641Z,8.17
2018-07-19T02:17:47.523Z,7.57
2018-07-19T02:20:30.048Z,8.27
2018-07-19T02:23:12.832Z,7.93
2018-07-19T02:25:55.311Z,7.60
2018-07-19T02:28:38.295Z,8.23
2018-07-19T02:31:21.062Z,7.63
2018-07-19T02:34:04.770Z,8.90
2018-07-19T02:36:47.825Z,8.33
2018-07-19T02:39:30.626Z,7.90
2018-07-19T02:42:14.566Z,7.93
2018-07-19T02:44:57.528Z,7.63
2018-07-19T02:47:41.021Z,8.87
2018-07-19T02:50:23.975Z,8.17
2018-07-19T02:53:07.974Z,9.07
2018-07-19T02:55:51.790Z,8.23
2018-07-19T02:58:34.589Z,8.27
2018-07-19T03:01:17.260Z,9.07
2018-07-19T03:04:00.019Z,7.80
2018-07-19T03:06:42.789Z,8.50
2018-07-19T03:09:25.546Z,8.47
2018-07-19T03:12:08.670Z,8.30
2018-07-19T03:14:51.540Z,9.20
2018-07-19T03:17:34.667Z,9.10
2018-07-19T03:20:17.350Z,8.30
2018-07-19T03:22:59.945Z,8.93
2018-07-19T03:25:42.883Z,8.80
2018-07-19T03:28:25.451Z,8.97
2018-07-19T03:31:08.539Z,9.50
2018-07-19T03:33:50.929Z,8.40
2018-07-19T03:36:33.681Z,8.50
2018-07-19T03:39:16.365Z,8.33
2018-07-19T03:41:59.491Z,8.97
2018-07-19T03:44:41.981Z,8.80
2018-07-19T03:47:24.547Z,9.70
2018-07-19T03:50:08.635Z,8.37
2018-07-19T03:52:51.169Z,9.67
2018-07-19T03:55:34.090Z,9.30
2018-07-19T03:58:16.831Z,8.80
2018-07-19T04:00:59.798Z,8.47
2018-07-19T04:03:42.751Z,8.43
2018-07-19T04:06:25.453Z,9.40
2018-07-19T04:09:08.759Z,9.70
2018-07-19T04:11:52.161Z,9.27
2018-07-19T04:14:34.841Z,10.00
2018-07-19T04:17:17.622Z,9.20
2018-07-19T04:20:00.342Z,9.77
2018-07-19T04:22:43.090Z,10.17
2018-07-19T04:25:26.286Z,9.90
2018-07-19T04:28:15.811Z,9.57
2018-07-19T04:30:59.021Z,10.57
2018-07-19T04:33:41.883Z,10.50
2018-07-19T04:36:24.414Z,10.03
2018-07-19T04:39:08.817Z,10.40
2018-07-19T04:41:52.083Z,9.90
2018-07-19T04:44:34.361Z,11.13
2018-07-19T04:47:17.486Z,9.77
2018-07-19T04:50:00.471Z,10.87
2018-07-19T04:52:43.218Z,11.33
2018-07-19T04:55:26.257Z,11.60
2018-07-19T04:58:08.650Z,10.87
2018-07-19T05:00:51.343Z,11.40
2018-07-19T05:03:34.081Z,11.40
2018-07-19T05:06:19.709Z,11.73
2018-07-19T05:09:02.592Z,10.83
2018-07-19T05:11:45.145Z,10.80
2018-07-19T05:14:28.112Z,10.30
2018-07-19T05:17:11.107Z,11.43
2018-07-19T05:19:53.422Z,10.17
2018-07-19T05:22:36.256Z,10.20
2018-07-19T05:25:18.912Z,10.60
2018-07-19T05:28:01.750Z,8.90
2018-07-19T05:30:44.327Z,11.93
2018-07-19T05:33:27.038Z,10.30
2018-07-19T05:36:10.227Z,10.60
2018-07-19T05:38:53.386Z,10.30
2018-07-19T05:41:36.283Z,9.60
2018-07-19T05:44:19.028Z,10.03
2018-07-19T05:47:01.645Z,10.47
2018-07-19T05:49:44.409Z,10.10
2018-07-19T05:52:27.329Z,9.13
2018-07-19T05:55:10.153Z,10.77
2018-07-19T05:57:53.638Z,9.33
2018-07-19T06:00:36.598Z,10.30
2018-07-19T06:03:19.290Z,9.00
2018-07-19T06:06:02.299Z,9.30
2018-07-19T06:08:46.333Z,9.43
2018-07-19T06:11:28.731Z,8.30
2018-07-19T06:14:11.867Z,9.50
2018-07-19T06:16:54.399Z,9.17
2018-07-19T06:19:36.929Z,8.77
2018-07-19T06:22:20.089Z,9.83
2018-07-19T06:25:02.681Z,8.77
2018-07-19T06:27:45.784Z,8.33
2018-07-19T06:30:28.729Z,8.43
2018-07-19T06:33:11.229Z,7.93
2018-07-19T06:35:54.023Z,7.70
2018-07-19T06:38:37.725Z,7.40
2018-07-19T06:41:20.767Z,7.97
2018-07-19T06:44:03.484Z,7.80
2018-07-19T06:46:47.017Z,7.27
2018-07-19T06:49:30.200Z,7.90
2018-07-19T06:52:12.784Z,7.30
2018-07-19T06:54:55.614Z,7.47
2018-07-19T06:57:38.436Z,7.57
2018-07-19T07:00:21.400Z,7.10
2018-07-19T07:03:04.440Z,7.37
2018-07-19T07:05:47.766Z,5.90
2018-07-19T07:08:29.958Z,6.50
2018-07-19T07:11:12.982Z,5.63
2018-07-19T07:13:55.846Z,5.43
2018-07-19T07:16:38.674Z,5.87
2018-07-19T07:19:21.621Z,5.78
2018-07-19T07:22:10.718Z,5.35
2018-07-19T07:24:53.814Z,5.97
2018-07-19T07:27:36.549Z,5.80
2018-07-19T07:30:19.185Z,5.45
2018-07-19T07:33:01.838Z,5.50
2018-07-19T07:35:44.559Z,6.25
2018-07-19T07:38:27.122Z,5.93
2018-07-19T07:41:10.127Z,5.12
2018-07-19T07:43:53.067Z,5.33
2018-07-19T07:46:35.860Z,5.90
2018-07-19T07:49:18.756Z,6.10
2018-07-19T07:52:02.233Z,5.60
2018-07-19T07:54:45.693Z,5.37
2018-07-19T07:57:28.829Z,6.17
2018-07-19T08:00:11.714Z,5.60
2018-07-19T08:02:54.609Z,5.53
2018-07-19T08:05:37.031Z,7.33
2018-07-19T08:08:20.147Z,6.50
2018-07-19T08:11:03.791Z,6.25
2018-07-19T08:13:46.609Z,5.53
2018-07-19T08:16:29.458Z,6.17
2018-07-19T08:19:12.782Z,5.75
2018-07-19T08:21:55.819Z,5.50
2018-07-19T08:24:38.446Z,5.85
2018-07-19T08:27:21.796Z,5.65
2018-07-19T08:30:04.618Z,5.47
2018-07-19T08:32:47.889Z,5.45
2018-07-19T08:35:30.640Z,5.95
2018-07-19T08:38:12.950Z,6.55
2018-07-19T08:40:56.144Z,5.75
2018-07-19T08:43:39.395Z,4.92
2018-07-19T08:46:22.986Z,5.30
2018-07-19T08:49:05.511Z,5.22
2018-07-19T08:51:48.410Z,5.78
2018-07-19T08:54:31.354Z,5.35
2018-07-19T08:57:15.082Z,5.65
2018-07-19T08:59:57.987Z,5.37
2018-07-19T09:02:41.244Z,4.87
2018-07-19T09:05:23.950Z,5.50
2018-07-19T09:08:06.948Z,5.17
2018-07-19T09:10:51.458Z,4.90
2018-07-19T09:13:34.616Z,5.62
2018-07-19T09:16:17.355Z,4.72
2018-07-19T09:19:00.169Z,4.87
2018-07-19T09:21:43.041Z,4.90
2018-07-19T09:24:26.712Z,4.72
2018-07-19T09:27:09.824Z,4.15
2018-07-19T09:29:52.668Z,4.80
2018-07-19T09:32:35.564Z,5.00
2018-07-19T09:35:18.598Z,5.75
2018-07-19T09:38:01.572Z,5.55
2018-07-19T09:40:44.310Z,5.58
2018-07-19T09:43:27.123Z,5.62
2018-07-19T09:46:09.859Z,5.60
2018-07-19T09:48:52.716Z,5.35
2018-07-19T09:51:35.440Z,5.60
2018-07-19T09:54:28.928Z,5.55
2018-07-19T09:57:11.964Z,5.60
2018-07-19T09:59:54.791Z,4.92
2018-07-19T10:02:37.896Z,5.67
2018-07-19T10:05:20.471Z,5.17
2018-07-19T10:08:09.654Z,5.40
2018-07-19T10:10:52.947Z,5.40
2018-07-19T10:13:35.210Z,5.12
2018-07-19T10:16:18.464Z,6.03
2018-07-19T10:19:01.193Z,5.65
2018-07-19T10:21:43.960Z,5.62
2018-07-19T10:24:27.099Z,5.47
2018-07-19T10:27:09.787Z,5.37
2018-07-19T10:29:52.254Z,5.22
2018-07-19T10:32:35.297Z,5.60
2018-07-19T10:35:17.972Z,5.17
2018-07-19T10:38:00.575Z,6.10
2018-07-19T10:40:44.251Z,5.80
2018-07-19T10:43:27.660Z,5.45
2018-07-19T10:46:10.807Z,5.40
2018-07-19T10:48:54.132Z,5.25
2018-07-19T10:51:36.906Z,6.00
2018-07-19T10:54:22.188Z,5.87
2018-07-19T10:57:05.092Z,6.10
2018-07-19T10:59:48.353Z,7.42
2018-07-19T11:02:31.609Z,5.72
2018-07-19T11:05:14.607Z,6.00
2018-07-19T11:07:56.936Z,7.35
2018-07-19T11:10:39.896Z,6.70
2018-07-19T11:13:22.830Z,6.28
2018-07-19T11:16:05.539Z,6.17
2018-07-19T11:18:48.440Z,6.33
2018-07-19T11:21:35.369Z,6.22
2018-07-19T11:24:18.041Z,5.97
2018-07-19T11:27:00.955Z,5.70
2018-07-19T11:29:44.119Z,5.50
2018-07-19T11:32:27.519Z,5.60
2018-07-19T11:35:10.318Z,5.40
2018-07-19T11:37:53.078Z,5.95
2018-07-19T11:40:37.433Z,6.42
2018-07-19T11:43:20.899Z,5.70
2018-07-19T11:46:03.323Z,6.58
2018-07-19T11:48:46.413Z,6.33
2018-07-19T11:51:29.564Z,6.80
2018-07-19T11:54:12.742Z,5.85
2018-07-19T11:56:55.792Z,6.50
2018-07-19T11:59:38.530Z,6.08
2018-07-19T12:02:21.502Z,5.87
2018-07-19T12:05:04.196Z,5.58
2018-07-19T12:07:46.892Z,5.10
2018-07-19T12:10:29.660Z,5.15
2018-07-19T12:13:12.671Z,5.22
2018-07-19T12:15:55.166Z,5.00
2018-07-19T12:18:40.951Z,5.12
2018-07-19T12:21:24.109Z,4.80
2018-07-19T12:24:10.010Z,4.95
2018-07-19T12:26:52.978Z,4.42
2018-07-19T12:29:35.756Z,5.28
2018-07-19T12:32:19.298Z,4.45
2018-07-19T12:35:12.491Z,5.20
2018-07-19T12:37:55.517Z,5.17
2018-07-19T12:40:38.711Z,4.90
2018-07-19T12:43:21.876Z,4.60
2018-07-19T12:46:05.149Z,4.53
2018-07-19T12:48:48.225Z,4.20
2018-07-19T12:51:31.742Z,4.62
2018-07-19T12:54:14.466Z,4.75
2018-07-19T12:56:57.607Z,5.40
2018-07-19T12:59:40.509Z,4.90
2018-07-19T13:02:23.242Z,5.00
2018-07-19T13:05:06.340Z,5.30
2018-07-19T13:07:48.775Z,4.50
2018-07-19T13:10:31.799Z,4.25
2018-07-19T13:13:14.345Z,4.20
2018-07-19T13:15:57.447Z,4.25
2018-07-19T13:18:40.059Z,4.37
2018-07-19T13:21:23.166Z,4.65
2018-07-19T13:24:05.631Z,5.10
2018-07-19T13:26:48.673Z,4.72
2018-07-19T13:29:31.442Z,4.40
2018-07-19T13:32:15.669Z,4.80
2018-07-19T13:34:58.270Z,4.40
2018-07-19T13:37:40.973Z,4.60
2018-07-19T13:40:24.051Z,4.10
2018-07-19T13:43:06.819Z,4.00
2018-07-19T13:45:49.569Z,4.17
2018-07-19T13:48:32.343Z,4.15
2018-07-19T13:51:15.110Z,4.28
2018-07-19T13:54:17.666Z,4.75
2018-07-19T13:57:00.444Z,4.20
2018-07-19T13:59:42.793Z,3.92
2018-07-19T14:02:26.006Z,3.60
2018-07-19T14:05:08.475Z,4.37
2018-07-19T14:07:51.246Z,4.05
2018-07-19T14:10:34.265Z,3.45
2018-07-19T14:13:17.631Z,4.08
2018-07-19T14:16:00.704Z,4.20
2018-07-19T14:18:43.744Z,3.65
2018-07-19T14:21:26.727Z,3.95
2018-07-19T14:24:09.866Z,3.52
2018-07-19T14:26:52.360Z,3.60
2018-07-19T14:29:35.069Z,3.60
2018-07-19T14:32:17.889Z,3.35
2018-07-19T14:35:01.211Z,4.05
2018-07-19T14:37:43.554Z,3.70
2018-07-19T14:40:26.491Z,4.70
2018-07-19T14:43:09.621Z,3.83
2018-07-19T14:45:52.267Z,3.05
2018-07-19T14:48:34.749Z,3.87
2018-07-19T14:51:17.550Z,3.50
2018-07-19T14:54:00.197Z,3.42
2018-07-19T14:56:43.121Z,3.30
2018-07-19T14:59:25.684Z,3.47
2018-07-19T15:02:08.385Z,3.08
2018-07-19T15:04:51.298Z,3.70
2018-07-19T15:07:34.008Z,3.60
2018-07-19T15:10:16.586Z,3.35
2018-07-19T15:12:59.431Z,3.77
2018-07-19T15:15:42.147Z,3.25
2018-07-19T15:18:25.151Z,3.42
2018-07-19T15:21:08.013Z,3.75
2018-07-19T15:23:50.800Z,3.52
2018-07-19T15:26:34.070Z,3.72
2018-07-19T15:29:17.485Z,3.20
2018-07-19T15:32:00.082Z,3.42
2018-07-19T15:34:45.658Z,4.25
2018-07-19T15:37:28.670Z,3.50
2018-07-19T15:40:11.679Z,3.95
2018-07-19T15:42:54.283Z,3.98
2018-07-19T15:45:37.497Z,4.05
2018-07-19T15:48:20.867Z,3.30
2018-07-19T15:51:03.475Z,3.27
2018-07-19T15:53:45.975Z,3.50
2018-07-19T15:56:28.729Z,3.70
2018-07-19T15:59:12.113Z,3.40
2018-07-19T16:01:54.388Z,3.90
2018-07-19T16:04:37.518Z,3.47
2018-07-19T16:07:20.231Z,4.10
2018-07-19T16:10:03.403Z,3.90
2018-07-19T16:12:46.165Z,4.10
2018-07-19T16:15:28.781Z,3.75
2018-07-19T16:18:11.666Z,3.80
2018-07-19T16:20:54.411Z,4.03
2018-07-19T16:23:37.258Z,4.37
2018-07-19T16:26:19.933Z,4.05
2018-07-19T16:29:02.579Z,4.00
2018-07-19T16:31:45.417Z,3.87
2018-07-19T16:34:28.358Z,3.80
2018-07-19T16:37:11.589Z,4.50
2018-07-19T16:39:54.116Z,3.60
2018-07-19T16:42:37.395Z,4.40
2018-07-19T16:45:19.806Z,3.98
2018-07-19T16:48:02.474Z,3.87
2018-07-19T16:50:45.771Z,3.72
2018-07-19T16:53:28.526Z,3.45
2018-07-19T16:56:11.117Z,3.55
2018-07-19T16:58:54.290Z,3.40
2018-07-19T17:01:37.370Z,4.00
2018-07-19T17:04:19.734Z,3.42
2018-07-19T17:07:02.521Z,3.50
2018-07-19T17:09:45.678Z,3.25
2018-07-19T17:12:28.437Z,3.55
2018-07-19T17:15:10.761Z,3.10
2018-07-19T17:17:53.609Z,3.47
2018-07-19T17:20:36.690Z,3.27
2018-07-19T17:23:19.345Z,3.12
2018-07-19T17:26:02.162Z,3.42
2018-07-19T17:28:45.346Z,3.58
2018-07-19T17:31:28.015Z,3.27
2018-07-19T17:34:10.756Z,3.62
2018-07-19T17:36:53.555Z,3.58
2018-07-19T17:39:36.542Z,3.67
2018-07-19T17:42:19.027Z,3.77
2018-07-19T17:45:01.989Z,3.87
2018-07-19T17:47:44.789Z,4.28
2018-07-19T17:50:28.065Z,3.90
2018-07-19T17:53:10.937Z,4.03
2018-07-19T17:55:53.839Z,4.28
2018-07-19T17:58:36.573Z,3.90
2018-07-19T18:01:19.357Z,4.42
2018-07-19T18:04:02.030Z,4.20
2018-07-19T18:06:44.945Z,4.27
2018-07-19T18:09:27.558Z,4.60
2018-07-19T18:12:10.406Z,4.53
2018-07-19T18:14:53.171Z,5.07
2018-07-19T18:17:36.102Z,5.00
2018-07-19T18:20:18.937Z,5.17
2018-07-19T18:23:01.518Z,4.70
2018-07-19T18:25:44.246Z,4.97
2018-07-19T18:28:26.985Z,4.90
2018-07-19T18:31:09.673Z,5.33
2018-07-19T18:33:52.466Z,4.70
2018-07-19T18:36:34.982Z,5.03
2018-07-19T18:39:18.246Z,4.90
2018-07-19T18:42:01.563Z,5.00
2018-07-19T18:44:44.705Z,5.47
2018-07-19T18:47:26.967Z,5.13
2018-07-19T18:50:09.836Z,5.20
2018-07-19T18:52:52.578Z,5.43
2018-07-19T18:55:35.692Z,4.90
2018-07-19T18:58:25.213Z,5.70
2018-07-19T19:01:08.242Z,4.97
2018-07-19T19:03:51.030Z,4.27
2018-07-19T19:06:34.407Z,5.60
2018-07-19T19:09:17.366Z,5.40
2018-07-19T19:12:00.318Z,5.10
2018-07-19T19:14:42.925Z,4.93
2018-07-19T19:17:25.769Z,4.70
2018-07-19T19:20:08.461Z,4.93
2018-07-19T19:22:51.141Z,5.53
2018-07-19T19:25:34.712Z,5.20
2018-07-19T19:28:17.823Z,5.30
2018-07-19T19:31:00.692Z,4.70
2018-07-19T19:33:43.165Z,5.30
2018-07-19T19:36:26.003Z,5.60
2018-07-19T19:39:12.158Z,4.63
2018-07-19T19:41:54.669Z,4.90
2018-07-19T19:44:37.423Z,4.87
2018-07-19T19:47:20.548Z,5.23
2018-07-19T19:50:03.686Z,5.00
2018-07-19T19:52:46.379Z,5.37
2018-07-19T19:55:29.332Z,5.50
2018-07-19T19:58:12.218Z,5.60
2018-07-19T20:00:54.755Z,5.67
2018-07-19T20:03:37.796Z,5.20
2018-07-19T20:06:20.817Z,5.27
2018-07-19T20:09:03.298Z,5.73
2018-07-19T20:11:45.834Z,5.87
2018-07-19T20:14:28.950Z,6.03
2018-07-19T20:17:11.432Z,5.53
2018-07-19T20:19:54.232Z,5.20
2018-07-19T20:22:38.050Z,5.83
2018-07-19T20:25:21.124Z,5.13
2018-07-19T20:28:03.957Z,5.63
2018-07-19T20:30:47.295Z,5.57
2018-07-19T20:33:30.217Z,5.83
2018-07-19T20:36:14.020Z,6.23
2018-07-19T20:38:57.904Z,5.77
2018-07-19T20:41:41.353Z,5.73
2018-07-19T20:44:24.588Z,5.70
2018-07-19T20:47:07.830Z,5.47
2018-07-19T20:49:51.444Z,5.63
2018-07-19T20:52:34.278Z,6.00
2018-07-19T20:55:17.788Z,6.30
2018-07-19T20:58:00.872Z,6.20
2018-07-19T21:00:43.505Z,5.93
2018-07-19T21:03:26.477Z,6.23
2018-07-19T21:06:11.414Z,6.03
2018-07-19T21:08:54.577Z,5.60
2018-07-19T21:11:37.469Z,6.17
2018-07-19T21:14:20.504Z,5.40
2018-07-19T21:17:04.075Z,5.87
2018-07-19T21:19:46.987Z,5.63
2018-07-19T21:22:29.792Z,5.97
2018-07-19T21:25:12.391Z,5.90
2018-07-19T21:27:55.116Z,5.80
2018-07-19T21:30:37.869Z,5.37
2018-07-19T21:33:20.793Z,6.40
2018-07-19T21:36:03.342Z,6.40
2018-07-19T21:38:45.996Z,6.33
2018-07-19T21:41:28.778Z,6.17
2018-07-19T21:44:11.681Z,6.30
2018-07-19T21:46:54.125Z,6.40
2018-07-19T21:49:36.848Z,6.23
2018-07-19T21:52:19.296Z,6.53
2018-07-19T21:55:02.810Z,7.13
2018-07-19T21:57:45.326Z,6.83
2018-07-19T22:00:30.031Z,6.40
2018-07-19T22:03:13.196Z,6.70
2018-07-19T22:05:55.926Z,6.80
2018-07-19T22:08:38.224Z,6.97
2018-07-19T22:11:20.939Z,6.73
2018-07-19T22:14:04.114Z,6.47
2018-07-19T22:16:46.504Z,7.10
2018-07-19T22:19:29.284Z,6.67
2018-07-19T22:22:11.857Z,6.53
2018-07-19T22:24:54.869Z,6.30
2018-07-19T22:27:37.253Z,6.50
2018-07-19T22:30:20.103Z,6.27
2018-07-19T22:33:02.939Z,7.07
2018-07-19T22:35:45.905Z,7.17
2018-07-19T22:38:28.195Z,7.63
2018-07-19T22:41:11.272Z,6.50
2018-07-19T22:43:53.591Z,6.80
2018-07-19T22:46:36.885Z,6.60
2018-07-19T22:49:20.067Z,7.33
2018-07-19T22:52:03.019Z,6.87
2018-07-19T22:54:46.022Z,7.17
2018-07-19T22:57:28.716Z,6.97
2018-07-19T23:00:12.091Z,7.70
2018-07-19T23:02:54.449Z,7.47
2018-07-19T23:05:37.254Z,7.33
2018-07-19T23:08:19.931Z,7.50
2018-07-19T23:11:02.718Z,7.80
2018-07-19T23:13:45.816Z,6.93
2018-07-19T23:16:28.106Z,7.80
2018-07-19T23:19:10.975Z,7.23
2018-07-19T23:21:53.873Z,8.00
2018-07-19T23:24:37.195Z,7.40
2018-07-19T23:27:21.025Z,7.70
2018-07-19T23:30:04.130Z,7.80
2018-07-19T23:32:47.223Z,7.90
2018-07-19T23:35:33.810Z,7.60
2018-07-19T23:38:20.318Z,7.50
2018-07-19T23:41:06.144Z,7.83
2018-07-19T23:43:52.229Z,8.10
2018-07-19T23:46:53.402Z,7.50
2018-07-19T23:49:36.806Z,7.40
2018-07-19T23:52:19.452Z,7.30
2018-07-19T23:55:02.275Z,7.80
2018-07-19T23:57:45.107Z,7.37
